Time;durP1;ratioP1;P1;durP2;ratioP2;P2;SDS_P1;SDS_P2;PMS_P1;PMS_P2;Temp;Humidity;BMP_temperature;BMP_pressure;BME280_temperature;BME280_humidity;BME280_pressure;Samples;Min_cycle;Max_cycle;Signal;HPM_P1;HPM_P2
2022/09/20 00:00:30;;;;;;;;;3.50;2.50;;;;;;;;5049643;28;45441;-77
2022/09/20 00:02:55;;;;;;;;;2.00;2.00;;;;;;;;5070235;28;45350;-77
2022/09/20 00:05:20;;;;;;;;;2.25;2.25;;;;;;;;5052884;28;45538;-77
2022/09/20 00:07:46;;;;;;;;;3.50;2.50;;;;;;;;5057964;28;45489;-77
2022/09/20 00:10:11;;;;;;;;;2.50;2.00;;;;;;;;5085805;27;47265;-77
2022/09/20 00:12:36;;;;;;;;;4.00;3.00;;;;;;;;5057549;28;44804;-77
2022/09/20 00:15:02;;;;;;;;;3.00;2.00;;;;;;;;5056644;28;45651;-77
2022/09/20 00:17:27;;;;;;;;;2.75;0.50;;;;;;;;5067838;28;45830;-77
2022/09/20 00:19:52;;;;;;;;;2.25;2.25;;;;;;;;5054377;28;46337;-77
2022/09/20 00:22:18;;;;;;;;;3.00;3.00;;;;;;;;5053113;28;45307;-77
2022/09/20 00:24:43;;;;;;;;;4.75;2.00;;;;;;;;5081073;27;45524;-77
2022/09/20 00:27:09;;;;;;;;;4.00;3.00;;;;;;;;5051663;28;45450;-77
2022/09/20 00:29:34;;;;;;;;;3.50;3.50;;;;;;;;5055612;28;46971;-77
2022/09/20 00:31:59;;;;;;;;;3.75;2.50;;;;;;;;5050111;28;45264;-77
2022/09/20 00:37:08;;;;;;;;;3.00;2.50;;;;;;;;5049826;28;45301;-77
2022/09/20 00:39:33;;;;;;;;;2.75;2.75;;;;;;;;5044767;28;46168;-77
2022/09/20 00:41:58;;;;;;;;;3.75;2.25;;;;;;;;5079980;27;45244;-77
2022/09/20 00:44:44;;;;;;;;;3.00;3.00;;;;;;;;5046618;28;45221;-78
2022/09/20 00:47:21;;;;;;;;;2.00;2.00;;;;;;;;5048498;28;45425;-78
2022/09/20 00:49:46;;;;;;;;;3.75;2.25;;;;;;;;5050352;28;45561;-77
2022/09/20 00:52:12;;;;;;;;;2.00;2.00;;;;;;;;5056998;28;45283;-77
2022/09/20 00:54:37;;;;;;;;;4.00;3.00;;;;;;;;5052728;28;45826;-77
2022/09/20 00:57:03;;;;;;;;;2.25;2.25;;;;;;;;5052453;28;45741;-77
2022/09/20 00:59:34;;;;;;;;;2.00;2.00;;;;;;;;5054760;28;46054;-77
2022/09/20 01:02:02;;;;;;;;;2.00;2.00;;;;;;;;5054030;28;45367;-77
2022/09/20 01:04:28;;;;;;;;;3.00;3.00;;;;;;;;5051236;28;45548;-78
2022/09/20 01:06:55;;;;;;;;;4.50;3.25;;;;;;;;5056672;28;45463;-78
2022/09/20 01:09:20;;;;;;;;;3.50;3.00;;;;;;;;5052646;28;46487;-77
2022/09/20 01:11:46;;;;;;;;;3.00;2.00;;;;;;;;5055137;28;45495;-78
2022/09/20 01:14:13;;;;;;;;;3.50;2.00;;;;;;;;5055343;28;45359;-77
2022/09/20 01:16:39;;;;;;;;;2.75;2.75;;;;;;;;5057844;28;46353;-77
2022/09/20 01:19:11;;;;;;;;;4.75;3.25;;;;;;;;5053397;28;45498;-78
2022/09/20 01:21:37;;;;;;;;;5.50;3.00;;;;;;;;5059696;28;45403;-78
2022/09/20 01:24:02;;;;;;;;;3.00;3.00;;;;;;;;5059030;28;45832;-78
2022/09/20 01:26:35;;;;;;;;;4.75;3.75;;;;;;;;5055827;28;45383;-78
2022/09/20 01:29:39;;;;;;;;;5.50;4.00;;;;;;;;5064137;28;46493;-78
2022/09/20 01:32:07;;;;;;;;;5.00;2.50;;;;;;;;5038214;28;45370;-78
2022/09/20 01:34:36;;;;;;;;;5.25;3.00;;;;;;;;5030067;28;45473;-78
2022/09/20 01:37:05;;;;;;;;;4.00;3.50;;;;;;;;5049810;28;45426;-78
2022/09/20 01:39:33;;;;;;;;;3.00;3.00;;;;;;;;5048264;28;46896;-78
2022/09/20 01:42:01;;;;;;;;;4.00;3.00;;;;;;;;5049916;28;45728;-78
2022/09/20 01:44:29;;;;;;;;;5.50;3.00;;;;;;;;5057907;28;45228;-78
2022/09/20 01:47:14;;;;;;;;;5.00;3.75;;;;;;;;5056291;28;45589;-78
2022/09/20 01:49:45;;;;;;;;;5.00;4.00;;;;;;;;5034927;28;45647;-78
2022/09/20 01:52:17;;;;;;;;;3.75;3.00;;;;;;;;5055546;28;45306;-78
2022/09/20 01:54:56;;;;;;;;;3.00;3.00;;;;;;;;5064860;28;45481;-78
2022/09/20 01:57:40;;;;;;;;;4.75;3.50;;;;;;;;5052251;28;44901;-77
2022/09/20 02:00:18;;;;;;;;;2.75;2.00;;;;;;;;5052508;28;45217;-77
2022/09/20 02:03:02;;;;;;;;;4.00;3.00;;;;;;;;5052203;28;45312;-77
2022/09/20 02:05:33;;;;;;;;;3.00;3.00;;;;;;;;5068326;28;45391;-77
2022/09/20 02:08:06;;;;;;;;;2.00;2.00;;;;;;;;5058834;28;45319;-77
2022/09/20 02:10:38;;;;;;;;;5.00;3.00;;;;;;;;5052920;28;47472;-78
2022/09/20 02:13:05;;;;;;;;;2.75;2.75;;;;;;;;5056804;28;45297;-77
2022/09/20 02:15:37;;;;;;;;;5.75;3.00;;;;;;;;5057945;28;45787;-78
2022/09/20 02:18:05;;;;;;;;;3.00;3.00;;;;;;;;5062466;28;45816;-78
2022/09/20 02:21:05;;;;;;;;;3.25;3.00;;;;;;;;5058494;28;45526;-77
2022/09/20 02:23:31;;;;;;;;;3.00;3.00;;;;;;;;4998593;28;45358;-78
2022/09/20 02:26:02;;;;;;;;;4.25;1.75;;;;;;;;5044769;28;45279;-78
2022/09/20 02:28:33;;;;;;;;;3.00;2.00;;;;;;;;5059704;28;45303;-78
2022/09/20 02:31:27;;;;;;;;;4.50;3.00;;;;;;;;5050077;28;45491;-78
2022/09/20 02:34:09;;;;;;;;;3.25;3.00;;;;;;;;5003400;28;45503;-78
2022/09/20 02:36:46;;;;;;;;;2.25;2.00;;;;;;;;5057939;28;45337;-78
2022/09/20 02:39:14;;;;;;;;;2.75;2.75;;;;;;;;5059692;28;45213;-78
2022/09/20 02:41:39;;;;;;;;;3.75;2.75;;;;;;;;5057440;28;45372;-78
2022/09/20 02:44:23;;;;;;;;;3.00;3.00;;;;;;;;5049507;28;45315;-78
2022/09/20 02:46:49;;;;;;;;;4.00;3.00;;;;;;;;5054404;28;45360;-78
2022/09/20 02:49:33;;;;;;;;;3.50;2.00;;;;;;;;5056305;28;45245;-78
2022/09/20 02:52:05;;;;;;;;;2.50;2.00;;;;;;;;5055840;28;46481;-78
2022/09/20 02:54:52;;;;;;;;;3.00;3.00;;;;;;;;5055660;28;45418;-78
2022/09/20 02:57:20;;;;;;;;;2.00;2.00;;;;;;;;5057908;28;45403;-78
2022/09/20 02:59:56;;;;;;;;;3.00;2.00;;;;;;;;5056578;28;45592;-78
2022/09/20 03:02:21;;;;;;;;;2.25;2.25;;;;;;;;5052050;28;46869;-78
2022/09/20 03:05:08;;;;;;;;;4.50;3.75;;;;;;;;5056475;28;45481;-78
2022/09/20 03:07:48;;;;;;;;;1.00;1.00;;;;;;;;5045962;28;45422;-78
2022/09/20 03:10:26;;;;;;;;;3.75;3.75;;;;;;;;5070912;28;46065;-78
2022/09/20 03:12:52;;;;;;;;;5.50;3.00;;;;;;;;5059306;28;45476;-78
2022/09/20 03:15:55;;;;;;;;;4.00;4.00;;;;;;;;5059623;28;45545;-78
2022/09/20 03:18:41;;;;;;;;;5.50;3.75;;;;;;;;4998428;28;45425;-79
2022/09/20 03:21:23;;;;;;;;;6.00;4.25;;;;;;;;4997183;28;45556;-78
2022/09/20 03:23:56;;;;;;;;;4.00;3.00;;;;;;;;5031047;28;46120;-79
2022/09/20 03:26:27;;;;;;;;;2.00;2.00;;;;;;;;5054218;28;45421;-77
2022/09/20 03:29:19;;;;;;;;;1.75;1.75;;;;;;;;5058972;28;45325;-78
2022/09/20 03:31:47;;;;;;;;;4.50;2.75;;;;;;;;5052637;28;45308;-78
2022/09/20 03:34:27;;;;;;;;;5.75;3.75;;;;;;;;5049147;28;46784;-78
2022/09/20 03:37:10;;;;;;;;;2.50;2.50;;;;;;;;5070483;28;45277;-78
2022/09/20 03:39:54;;;;;;;;;3.00;2.00;;;;;;;;5053741;28;45395;-78
2022/09/20 03:42:24;;;;;;;;;4.00;2.50;;;;;;;;5053601;28;45402;-75
2022/09/20 03:44:58;;;;;;;;;4.75;3.00;;;;;;;;5055583;28;45527;-76
2022/09/20 03:47:42;;;;;;;;;4.00;2.00;;;;;;;;5058571;28;45518;-76
2022/09/20 03:50:10;;;;;;;;;4.00;3.00;;;;;;;;5055835;28;45324;-79
2022/09/20 03:52:54;;;;;;;;;2.00;2.00;;;;;;;;5066404;28;45382;-80
2022/09/20 03:55:20;;;;;;;;;5.00;3.50;;;;;;;;5056248;28;45441;-79
2022/09/20 03:57:54;;;;;;;;;5.00;3.75;;;;;;;;5058861;28;45409;-78
2022/09/20 04:00:22;;;;;;;;;4.75;3.75;;;;;;;;5050093;28;45970;-79
2022/09/20 04:03:02;;;;;;;;;4.00;3.00;;;;;;;;5058596;28;45431;-80
2022/09/20 04:05:30;;;;;;;;;3.50;3.00;;;;;;;;5052652;28;46766;-79
2022/09/20 04:08:05;;;;;;;;;5.00;3.75;;;;;;;;5040327;28;45326;-79
2022/09/20 04:10:45;;;;;;;;;4.75;3.00;;;;;;;;5050238;28;45292;-79
2022/09/20 04:13:10;;;;;;;;;5.00;5.00;;;;;;;;5056891;28;45140;-80
2022/09/20 04:15:40;;;;;;;;;4.00;4.00;;;;;;;;5056929;28;46295;-79
2022/09/20 04:18:22;;;;;;;;;5.00;2.00;;;;;;;;5051568;28;45451;-79
2022/09/20 04:20:47;;;;;;;;;5.00;3.25;;;;;;;;5058268;28;45473;-78
2022/09/20 04:23:18;;;;;;;;;3.00;3.00;;;;;;;;5058113;28;45953;-80
2022/09/20 04:25:46;;;;;;;;;4.00;4.00;;;;;;;;5055951;28;45369;-79
2022/09/20 04:28:18;;;;;;;;;3.00;3.00;;;;;;;;5059019;28;45220;-79
2022/09/20 04:30:45;;;;;;;;;3.50;3.50;;;;;;;;5053922;28;46941;-79
2022/09/20 04:33:10;;;;;;;;;6.75;3.00;;;;;;;;5051119;28;46166;-79
2022/09/20 04:38:34;;;;;;;;;3.75;3.75;;;;;;;;5048275;28;45466;-80
2022/09/20 04:41:05;;;;;;;;;4.00;4.00;;;;;;;;5052377;28;45586;-79
2022/09/20 04:43:36;;;;;;;;;2.75;2.75;;;;;;;;5049410;28;45304;-79
2022/09/20 04:46:41;;;;;;;;;3.00;3.00;;;;;;;;5048791;28;45453;-80
2022/09/20 04:49:09;;;;;;;;;3.00;3.00;;;;;;;;4975572;28;45372;-79
2022/09/20 04:51:37;;;;;;;;;5.00;3.75;;;;;;;;4996281;28;45350;-77
2022/09/20 04:54:21;;;;;;;;;3.75;3.75;;;;;;;;5020587;28;46287;-79
2022/09/20 04:56:46;;;;;;;;;3.50;3.50;;;;;;;;5059749;28;46382;-79
2022/09/20 04:59:32;;;;;;;;;4.00;4.00;;;;;;;;5061369;28;45145;-79
2022/09/20 05:02:02;;;;;;;;;3.50;3.50;;;;;;;;5032845;28;46431;-79
2022/09/20 05:04:39;;;;;;;;;4.75;3.50;;;;;;;;5061679;28;45576;-79
2022/09/20 05:07:14;;;;;;;;;4.00;4.00;;;;;;;;5060316;28;45647;-78
2022/09/20 05:09:57;;;;;;;;;4.00;2.75;;;;;;;;5058497;28;45371;-80
2022/09/20 05:12:26;;;;;;;;;3.75;3.50;;;;;;;;5061606;28;45483;-79
2022/09/20 05:15:07;;;;;;;;;4.50;4.50;;;;;;;;5058472;28;46095;-78
2022/09/20 05:17:55;;;;;;;;;2.00;1.50;;;;;;;;5059138;28;46098;-78
2022/09/20 05:20:39;;;;;;;;;3.00;2.00;;;;;;;;5021115;28;45544;-78
2022/09/20 05:23:23;;;;;;;;;9.25;5.00;;;;;;;;5061535;28;45387;-80
2022/09/20 05:26:14;;;;;;;;;4.00;4.00;;;;;;;;5058668;28;45295;-79
2022/09/20 05:28:59;;;;;;;;;4.00;3.00;;;;;;;;5054856;28;47363;-81
2022/09/20 05:31:40;;;;;;;;;6.00;5.00;;;;;;;;5059394;28;45339;-79
2022/09/20 05:34:24;;;;;;;;;4.00;4.00;;;;;;;;5060666;28;45249;-79
2022/09/20 05:37:15;;;;;;;;;6.00;4.00;;;;;;;;5060604;28;45161;-80
2022/09/20 05:39:45;;;;;;;;;3.75;3.75;;;;;;;;5082368;27;47060;-81
2022/09/20 05:42:39;;;;;;;;;4.00;4.00;;;;;;;;5061201;28;45333;-79
2022/09/20 05:45:23;;;;;;;;;4.25;4.00;;;;;;;;5042162;28;45234;-80
2022/09/20 05:48:07;;;;;;;;;6.25;5.75;;;;;;;;5076643;28;46868;-80
2022/09/20 05:50:41;;;;;;;;;5.00;5.00;;;;;;;;5058678;28;46166;-81
2022/09/20 05:53:06;;;;;;;;;6.00;4.00;;;;;;;;5058485;28;45379;-80
2022/09/20 05:55:41;;;;;;;;;5.75;4.50;;;;;;;;5054611;28;45438;-80
2022/09/20 05:58:06;;;;;;;;;5.25;3.50;;;;;;;;5061427;28;45675;-80
2022/09/20 06:00:40;;;;;;;;;6.00;5.00;;;;;;;;5059292;28;46201;-81
2022/09/20 06:03:29;;;;;;;;;4.75;4.75;;;;;;;;5060682;28;45323;-81
2022/09/20 06:06:01;;;;;;;;;6.00;5.00;;;;;;;;5050481;28;45371;-80
2022/09/20 06:08:42;;;;;;;;;4.75;4.75;;;;;;;;5060938;28;45304;-80
2022/09/20 06:11:26;;;;;;;;;6.00;6.00;;;;;;;;5058921;28;45466;-81
2022/09/20 06:14:00;;;;;;;;;6.00;4.00;;;;;;;;5063686;28;46457;-80
2022/09/20 06:16:40;;;;;;;;;6.50;5.00;;;;;;;;5060800;28;45165;-80
2022/09/20 06:19:05;;;;;;;;;5.75;4.00;;;;;;;;5060598;28;45560;-80
2022/09/20 06:21:40;;;;;;;;;8.75;5.75;;;;;;;;5059266;28;45614;-81
2022/09/20 06:24:17;;;;;;;;;6.00;6.00;;;;;;;;5060557;28;44689;-81
2022/09/20 06:26:43;;;;;;;;;2.25;0.00;;;;;;;;5059750;28;45371;-81
2022/09/20 06:29:11;;;;;;;;;2.00;2.00;;;;;;;;5059796;28;45239;-80
2022/09/20 06:31:37;;;;;;;;;7.25;6.25;;;;;;;;5074455;28;47954;-81
2022/09/20 06:34:04;;;;;;;;;12.00;5.00;;;;;;;;5060293;28;45469;-81
2022/09/20 06:42:01;;;;;;;;;5.75;5.00;;;;;;;;5059544;28;45674;-81
2022/09/20 06:44:26;;;;;;;;;6.50;6.00;;;;;;;;5058214;28;45367;-81
2022/09/20 06:46:53;;;;;;;;;4.00;4.00;;;;;;;;5060275;28;45221;-81
2022/09/20 06:49:18;;;;;;;;;5.25;4.25;;;;;;;;5060534;28;45313;-81
2022/09/20 06:51:43;;;;;;;;;7.75;4.00;;;;;;;;5060712;28;45355;-80
2022/09/20 06:54:13;;;;;;;;;3.00;3.00;;;;;;;;5058172;28;45264;-82
2022/09/20 06:56:38;;;;;;;;;4.00;4.00;;;;;;;;5059671;28;45428;-80
2022/09/20 06:59:09;;;;;;;;;4.00;4.00;;;;;;;;5059781;28;45640;-81
2022/09/20 07:01:34;;;;;;;;;8.75;7.00;;;;;;;;5056327;28;47651;-81
2022/09/20 07:04:01;;;;;;;;;7.00;6.50;;;;;;;;5059955;28;45213;-81
2022/09/20 07:06:28;;;;;;;;;7.00;6.75;;;;;;;;5057492;28;45212;-81
2022/09/20 07:08:53;;;;;;;;;5.00;5.00;;;;;;;;5059847;28;45624;-78
2022/09/20 07:11:18;;;;;;;;;6.75;6.75;;;;;;;;5047382;28;45429;-79
2022/09/20 07:13:44;;;;;;;;;5.50;5.00;;;;;;;;5059525;28;45146;-80
2022/09/20 07:16:11;;;;;;;;;7.75;7.75;;;;;;;;5054210;28;45427;-78
2022/09/20 07:18:36;;;;;;;;;2.25;2.25;;;;;;;;5056226;28;45387;-79
2022/09/20 07:21:02;;;;;;;;;6.00;6.00;;;;;;;;5050432;28;46033;-79
2022/09/20 07:23:28;;;;;;;;;6.00;5.00;;;;;;;;5052747;28;45394;-79
2022/09/20 07:25:56;;;;;;;;;5.50;5.50;;;;;;;;5052269;28;45370;-79
2022/09/20 07:28:21;;;;;;;;;4.25;4.25;;;;;;;;5055360;28;45426;-77
2022/09/20 07:30:47;;;;;;;;;7.00;5.50;;;;;;;;5047819;28;46448;-78
2022/09/20 07:33:18;;;;;;;;;7.50;6.25;;;;;;;;5089505;27;45286;-78
2022/09/20 07:35:43;;;;;;;;;7.00;5.00;;;;;;;;5050552;28;45491;-77
2022/09/20 07:38:09;;;;;;;;;5.25;4.50;;;;;;;;5050645;28;45356;-77
2022/09/20 07:40:34;;;;;;;;;6.25;4.00;;;;;;;;5045259;28;45420;-78
2022/09/20 07:42:59;;;;;;;;;8.00;6.50;;;;;;;;5053226;28;44753;-77
2022/09/20 07:45:25;;;;;;;;;9.50;5.00;;;;;;;;5065406;28;45375;-77
2022/09/20 07:47:52;;;;;;;;;10.25;7.00;;;;;;;;5091705;27;45531;-78
2022/09/20 07:50:18;;;;;;;;;6.00;6.00;;;;;;;;5049547;28;45991;-77
2022/09/20 07:52:43;;;;;;;;;7.75;6.75;;;;;;;;5058644;28;45384;-77
2022/09/20 07:55:08;;;;;;;;;7.25;5.25;;;;;;;;5057174;28;45453;-77
2022/09/20 07:57:36;;;;;;;;;13.50;11.50;;;;;;;;5053452;28;45943;-77
2022/09/20 08:00:01;;;;;;;;;6.25;6.25;;;;;;;;5050276;28;45288;-77
2022/09/20 08:02:26;;;;;;;;;6.75;6.75;;;;;;;;5090104;27;45355;-77
2022/09/20 08:04:51;;;;;;;;;7.50;6.50;;;;;;;;5054799;28;45367;-79
2022/09/20 08:07:17;;;;;;;;;8.75;8.00;;;;;;;;5057239;28;45430;-78
2022/09/20 08:09:42;;;;;;;;;10.00;6.75;;;;;;;;5057230;28;45385;-78
2022/09/20 08:12:07;;;;;;;;;8.50;7.50;;;;;;;;5049160;28;45387;-79
2022/09/20 08:14:33;;;;;;;;;8.00;8.00;;;;;;;;5049221;28;45367;-78
2022/09/20 08:16:59;;;;;;;;;4.25;4.00;;;;;;;;5056165;28;45448;-79
2022/09/20 08:19:25;;;;;;;;;8.00;7.00;;;;;;;;5056765;28;45427;-78
2022/09/20 08:21:52;;;;;;;;;5.00;5.00;;;;;;;;5056537;28;45177;-78
2022/09/20 08:24:17;;;;;;;;;11.75;10.25;;;;;;;;5055733;28;45206;-78
2022/09/20 08:26:43;;;;;;;;;9.50;8.25;;;;;;;;5089159;27;45472;-78
2022/09/20 08:29:08;;;;;;;;;9.50;7.25;;;;;;;;5047475;28;45391;-78
2022/09/20 08:31:36;;;;;;;;;10.25;9.00;;;;;;;;5050592;28;45430;-76
2022/09/20 08:34:02;;;;;;;;;9.75;7.75;;;;;;;;5060025;28;45372;-77
2022/09/20 08:36:28;;;;;;;;;5.25;5.00;;;;;;;;5049421;28;45297;-77
2022/09/20 08:38:54;;;;;;;;;8.25;8.25;;;;;;;;5055180;28;47045;-77
2022/09/20 08:41:30;;;;;;;;;9.75;8.50;;;;;;;;5082345;27;45479;-77
2022/09/20 08:44:10;;;;;;;;;9.00;8.75;;;;;;;;5058070;28;45430;-77
2022/09/20 08:46:38;;;;;;;;;11.00;9.00;;;;;;;;5046929;28;45461;-77
2022/09/20 08:49:05;;;;;;;;;10.50;8.00;;;;;;;;5045777;28;45284;-77
2022/09/20 08:51:36;;;;;;;;;12.50;9.50;;;;;;;;5055332;28;45219;-77
2022/09/20 08:54:03;;;;;;;;;9.50;9.00;;;;;;;;5054961;28;45270;-77
2022/09/20 08:56:33;;;;;;;;;8.50;8.00;;;;;;;;5050912;28;45392;-77
2022/09/20 08:58:59;;;;;;;;;10.00;9.25;;;;;;;;5055760;28;45257;-77
2022/09/20 09:01:25;;;;;;;;;9.50;8.50;;;;;;;;5046094;28;45447;-77
2022/09/20 09:03:51;;;;;;;;;10.00;8.75;;;;;;;;5051604;28;45284;-77
2022/09/20 09:06:19;;;;;;;;;4.75;4.75;;;;;;;;5052457;28;45362;-77
2022/09/20 09:08:48;;;;;;;;;11.00;8.00;;;;;;;;5052236;28;45320;-77
2022/09/20 09:11:15;;;;;;;;;8.00;8.00;;;;;;;;5051900;28;45253;-77
2022/09/20 09:13:43;;;;;;;;;10.00;9.33;;;;;;;;5054701;28;45374;-77
2022/09/20 09:16:11;;;;;;;;;8.67;7.33;;;;;;;;5068612;28;47549;-77
2022/09/20 09:18:39;;;;;;;;;11.00;8.33;;;;;;;;5053739;28;46046;-77
2022/09/20 09:21:06;;;;;;;;;9.00;8.00;;;;;;;;5049139;28;45463;-77
2022/09/20 09:23:40;;;;;;;;;8.00;7.00;;;;;;;;5055605;28;45434;-78
2022/09/20 09:26:13;;;;;;;;;9.33;8.00;;;;;;;;5050640;28;45387;-77
2022/09/20 09:28:38;;;;;;;;;9.00;9.00;;;;;;;;5058032;28;46289;-77
2022/09/20 09:31:24;;;;;;;;;10.33;6.33;;;;;;;;5051156;28;45453;-77
2022/09/20 09:33:50;;;;;;;;;9.00;9.00;;;;;;;;5040729;28;45395;-77
2022/09/20 09:36:19;;;;;;;;;8.67;6.67;;;;;;;;5051183;28;45351;-77
2022/09/20 09:38:45;;;;;;;;;6.00;6.00;;;;;;;;5044627;28;46949;-77
2022/09/20 09:41:16;;;;;;;;;7.00;7.00;;;;;;;;5069625;28;45540;-77
2022/09/20 09:43:41;;;;;;;;;7.00;7.00;;;;;;;;5047489;28;45328;-77
2022/09/20 09:46:16;;;;;;;;;8.33;6.33;;;;;;;;5052898;28;45319;-77
2022/09/20 09:48:42;;;;;;;;;11.00;7.00;;;;;;;;5077917;28;47967;-77
2022/09/20 09:51:11;;;;;;;;;9.33;8.00;;;;;;;;5062223;28;45397;-77
2022/09/20 09:53:38;;;;;;;;;8.00;6.00;;;;;;;;5057560;28;45315;-77
2022/09/20 09:56:12;;;;;;;;;10.33;7.67;;;;;;;;5052542;28;45311;-77
2022/09/20 09:58:57;;;;;;;;;7.00;7.00;;;;;;;;5051301;28;45553;-77
2022/09/20 10:01:42;;;;;;;;;10.00;7.67;;;;;;;;5056287;28;45238;-77
2022/09/20 10:04:23;;;;;;;;;14.00;9.33;;;;;;;;5027576;28;45322;-77
2022/09/20 10:07:18;;;;;;;;;11.00;9.67;;;;;;;;5059353;28;45457;-77
2022/09/20 10:09:43;;;;;;;;;8.00;8.00;;;;;;;;5045335;28;46291;-77
2022/09/20 10:12:35;;;;;;;;;9.00;7.67;;;;;;;;5057475;28;45306;-77
2022/09/20 10:15:13;;;;;;;;;8.67;7.00;;;;;;;;5051272;28;45498;-77
2022/09/20 10:17:46;;;;;;;;;7.00;6.00;;;;;;;;5061082;28;45338;-77
2022/09/20 10:20:27;;;;;;;;;8.33;8.00;;;;;;;;5049425;28;45476;-77
2022/09/20 10:23:10;;;;;;;;;9.33;6.33;;;;;;;;5047359;28;45194;-77
2022/09/20 10:25:38;;;;;;;;;8.33;7.00;;;;;;;;5049102;28;45252;-76
2022/09/20 10:28:22;;;;;;;;;9.33;7.67;;;;;;;;5052938;28;45456;-77
2022/09/20 10:30:47;;;;;;;;;9.33;6.67;;;;;;;;5060455;28;46744;-77
2022/09/20 10:33:39;;;;;;;;;10.67;7.00;;;;;;;;5058764;28;45439;-77
2022/09/20 10:36:14;;;;;;;;;6.67;6.00;;;;;;;;5043788;28;45269;-77
2022/09/20 10:38:56;;;;;;;;;6.33;5.00;;;;;;;;5074675;28;46923;-77
2022/09/20 10:44:17;;;;;;;;;5.00;5.00;;;;;;;;5055090;28;45358;-77
2022/09/20 10:46:51;;;;;;;;;6.33;5.67;;;;;;;;5055999;28;45281;-77
2022/09/20 10:49:32;;;;;;;;;11.67;7.00;;;;;;;;5056319;28;45313;-77
2022/09/20 10:51:59;;;;;;;;;8.00;6.33;;;;;;;;5060683;28;47135;-78
2022/09/20 10:54:37;;;;;;;;;8.67;8.00;;;;;;;;5055165;28;45545;-78
2022/09/20 10:57:08;;;;;;;;;9.00;7.33;;;;;;;;5070521;28;45353;-78
2022/09/20 11:00:00;;;;;;;;;9.33;6.00;;;;;;;;5058574;28;45379;-78
2022/09/20 11:02:40;;;;;;;;;8.00;6.33;;;;;;;;5054832;28;47107;-77
2022/09/20 11:05:24;;;;;;;;;7.67;7.67;;;;;;;;5055490;28;45434;-78
2022/09/20 11:07:53;;;;;;;;;9.67;7.33;;;;;;;;5059752;28;45221;-78
2022/09/20 11:10:34;;;;;;;;;7.00;5.67;;;;;;;;5053712;28;45461;-78
2022/09/20 11:13:04;;;;;;;;;9.67;7.00;;;;;;;;5053790;28;45151;-78
2022/09/20 11:15:29;;;;;;;;;8.33;6.67;;;;;;;;5056604;28;45188;-78
2022/09/20 11:18:00;;;;;;;;;7.67;7.33;;;;;;;;5051548;28;45386;-78
2022/09/20 11:20:32;;;;;;;;;4.67;4.67;;;;;;;;5048587;28;45862;-78
2022/09/20 11:23:01;;;;;;;;;4.67;4.67;;;;;;;;5067574;28;46407;-77
2022/09/20 11:25:43;;;;;;;;;7.67;6.00;;;;;;;;5051548;28;45381;-78
2022/09/20 11:28:13;;;;;;;;;4.33;4.33;;;;;;;;5053229;28;45293;-79
2022/09/20 11:30:49;;;;;;;;;3.33;3.33;;;;;;;;5049691;28;45635;-77
2022/09/20 11:33:17;;;;;;;;;3.00;3.00;;;;;;;;5055978;28;46529;-77
2022/09/20 11:35:45;;;;;;;;;5.67;5.33;;;;;;;;5054058;28;45287;-77
2022/09/20 11:38:15;;;;;;;;;4.00;3.67;;;;;;;;5056431;28;45480;-77
2022/09/20 11:40:44;;;;;;;;;5.00;4.33;;;;;;;;5051653;28;45381;-77
2022/09/20 11:43:13;;;;;;;;;2.33;1.00;;;;;;;;5057554;28;46152;-77
2022/09/20 11:45:39;;;;;;;;;1.67;1.67;;;;;;;;5054988;28;44912;-76
2022/09/20 11:48:12;;;;;;;;;3.33;2.00;;;;;;;;5059349;28;45327;-78
2022/09/20 11:50:46;;;;;;;;;1.33;1.33;;;;;;;;5057340;28;45634;-76
2022/09/20 11:53:23;;;;;;;;;2.33;2.33;;;;;;;;5058910;28;45328;-76
2022/09/20 11:55:49;;;;;;;;;1.33;1.00;;;;;;;;5057091;28;45424;-75
2022/09/20 11:58:16;;;;;;;;;2.33;1.00;;;;;;;;5064325;28;45294;-77
2022/09/20 12:00:45;;;;;;;;;2.33;0.67;;;;;;;;5046430;28;45305;-76
2022/09/20 12:03:40;;;;;;;;;4.33;4.33;;;;;;;;5058344;28;45479;-77
2022/09/20 12:06:19;;;;;;;;;5.67;5.00;;;;;;;;5043191;28;45588;-77
2022/09/20 12:08:47;;;;;;;;;6.00;4.00;;;;;;;;5056836;28;45161;-77
2022/09/20 12:11:13;;;;;;;;;6.00;4.00;;;;;;;;5058049;28;45520;-77
2022/09/20 12:14:02;;;;;;;;;6.33;5.33;;;;;;;;5061811;28;45578;-75
2022/09/20 12:16:36;;;;;;;;;3.00;2.00;;;;;;;;5042791;28;45525;-77
2022/09/20 12:19:02;;;;;;;;;2.00;2.00;;;;;;;;5054013;28;45660;-77
2022/09/20 12:21:28;;;;;;;;;5.67;3.33;;;;;;;;5053482;28;45476;-76
2022/09/20 12:23:56;;;;;;;;;2.67;1.67;;;;;;;;5059137;28;45435;-74
2022/09/20 12:26:21;;;;;;;;;3.00;1.67;;;;;;;;5053393;28;45435;-74
2022/09/20 12:28:54;;;;;;;;;1.33;1.33;;;;;;;;5052582;28;45243;-80
2022/09/20 12:31:28;;;;;;;;;4.33;3.00;;;;;;;;5048111;28;45410;-78
2022/09/20 12:34:08;;;;;;;;;6.00;3.33;;;;;;;;5048617;28;47054;-80
2022/09/20 12:36:35;;;;;;;;;3.33;2.67;;;;;;;;5051224;28;45626;-79
2022/09/20 12:39:03;;;;;;;;;1.67;1.67;;;;;;;;5058740;28;45470;-80
2022/09/20 12:41:44;;;;;;;;;2.00;2.00;;;;;;;;5053073;28;46069;-82
2022/09/20 12:44:27;;;;;;;;;3.33;1.67;;;;;;;;5058548;28;45453;-80
2022/09/20 12:47:05;;;;;;;;;3.67;3.67;;;;;;;;5073723;28;45982;-82
2022/09/20 12:55:10;;;;;;;;;3.00;1.67;;;;;;;;5055330;28;45460;-82
2022/09/20 12:57:35;;;;;;;;;3.00;1.67;;;;;;;;5057981;28;45391;-81
2022/09/20 13:00:01;;;;;;;;;3.00;0.67;;;;;;;;5056057;28;45323;-79
2022/09/20 13:02:41;;;;;;;;;3.00;2.00;;;;;;;;5057168;28;45411;-80
2022/09/20 13:05:37;;;;;;;;;2.67;2.67;;;;;;;;5054699;28;46202;-79
2022/09/20 13:08:22;;;;;;;;;3.33;2.67;;;;;;;;5043213;28;45496;-79
2022/09/20 13:10:56;;;;;;;;;1.67;1.67;;;;;;;;5052056;28;45380;-77
2022/09/20 13:13:34;;;;;;;;;2.00;1.00;;;;;;;;5059763;28;45594;-78
2022/09/20 13:16:00;;;;;;;;;0.67;0.67;;;;;;;;5057590;28;47389;-79
2022/09/20 13:18:26;;;;;;;;;3.00;2.00;;;;;;;;5061806;28;45589;-78
2022/09/20 13:20:52;;;;;;;;;0.67;0.67;;;;;;;;5060041;28;45302;-80
2022/09/20 13:23:20;;;;;;;;;2.00;0.67;;;;;;;;5062578;28;45298;-80
2022/09/20 13:25:46;;;;;;;;;2.00;2.00;;;;;;;;5061397;28;46141;-80
2022/09/20 13:28:18;;;;;;;;;3.67;0.67;;;;;;;;5061598;28;46410;-78
2022/09/20 13:30:44;;;;;;;;;3.00;0.67;;;;;;;;5055119;28;45979;-79
2022/09/20 13:33:19;;;;;;;;;2.33;2.33;;;;;;;;5060494;28;45387;-79
2022/09/20 13:35:47;;;;;;;;;3.00;2.00;;;;;;;;5060173;28;46267;-78
2022/09/20 13:38:13;;;;;;;;;1.00;1.00;;;;;;;;5059864;28;44777;-79
2022/09/20 13:40:41;;;;;;;;;3.00;1.00;;;;;;;;5060064;28;45235;-80
2022/09/20 13:43:20;;;;;;;;;3.00;0.67;;;;;;;;5061475;28;45303;-78
2022/09/20 13:45:46;;;;;;;;;4.67;2.67;;;;;;;;5054348;28;46211;-78
2022/09/20 13:48:11;;;;;;;;;2.00;2.00;;;;;;;;5061706;28;45139;-79
2022/09/20 13:50:38;;;;;;;;;2.00;2.00;;;;;;;;5059692;28;44744;-80
2022/09/20 13:53:14;;;;;;;;;1.00;1.00;;;;;;;;5061572;28;45227;-77
2022/09/20 13:55:39;;;;;;;;;2.33;1.00;;;;;;;;5056634;28;47934;-80
2022/09/20 13:58:07;;;;;;;;;2.33;2.33;;;;;;;;5059396;28;45615;-79
2022/09/20 14:00:34;;;;;;;;;3.67;3.67;;;;;;;;5074712;28;45537;-79
2022/09/20 14:02:59;;;;;;;;;2.00;2.00;;;;;;;;5061821;28;45375;-79
2022/09/20 14:05:27;;;;;;;;;4.25;3.00;;;;;;;;5059044;28;45446;-77
2022/09/20 14:07:53;;;;;;;;;1.00;1.00;;;;;;;;5061391;28;45221;-78
2022/09/20 14:10:26;;;;;;;;;4.25;3.50;;;;;;;;5058018;28;45419;-79
2022/09/20 14:12:51;;;;;;;;;2.25;2.25;;;;;;;;5064518;28;45220;-78
2022/09/20 14:15:17;;;;;;;;;2.75;2.75;;;;;;;;5059701;28;45357;-77
2022/09/20 14:17:43;;;;;;;;;4.67;2.67;;;;;;;;5052577;28;45269;-79
2022/09/20 14:20:12;;;;;;;;;2.50;1.75;;;;;;;;5047900;28;45393;-79
2022/09/20 14:22:38;;;;;;;;;2.50;2.50;;;;;;;;5058976;28;45399;-79
2022/09/20 14:25:18;;;;;;;;;3.00;1.75;;;;;;;;5056758;28;45287;-79
2022/09/20 14:27:43;;;;;;;;;3.00;3.00;;;;;;;;5058711;28;45366;-79
2022/09/20 14:30:46;;;;;;;;;1.75;1.75;;;;;;;;5056904;28;45521;-79
2022/09/20 14:33:19;;;;;;;;;2.50;2.50;;;;;;;;5018172;28;45558;-79
2022/09/20 14:35:49;;;;;;;;;3.50;3.50;;;;;;;;5010659;28;45526;-79
2022/09/20 14:38:16;;;;;;;;;3.33;3.33;;;;;;;;5037917;28;45509;-79
2022/09/20 14:40:43;;;;;;;;;4.33;3.33;;;;;;;;5055192;28;45457;-79
2022/09/20 14:43:27;;;;;;;;;3.67;2.33;;;;;;;;5056835;28;45423;-79
2022/09/20 14:45:54;;;;;;;;;2.00;2.00;;;;;;;;5050427;28;46197;-78
2022/09/20 14:48:20;;;;;;;;;2.00;2.00;;;;;;;;5058919;28;45272;-79
2022/09/20 14:51:05;;;;;;;;;3.00;2.00;;;;;;;;5052906;28;45273;-78
2022/09/20 14:53:31;;;;;;;;;2.33;1.67;;;;;;;;5060353;28;46193;-79
2022/09/20 14:56:02;;;;;;;;;3.00;1.67;;;;;;;;5064260;28;48060;-79
2022/09/20 14:58:28;;;;;;;;;1.00;1.00;;;;;;;;5049743;28;45316;-79
2022/09/20 15:00:57;;;;;;;;;2.00;2.00;;;;;;;;5067617;28;45235;-77
2022/09/20 15:03:40;;;;;;;;;1.67;1.67;;;;;;;;5056167;28;45557;-79
2022/09/20 15:06:09;;;;;;;;;2.00;2.00;;;;;;;;5058401;28;45727;-79
2022/09/20 15:08:35;;;;;;;;;1.67;1.33;;;;;;;;5056796;28;45658;-77
2022/09/20 15:11:01;;;;;;;;;1.00;1.00;;;;;;;;5053723;28;45423;-79
2022/09/20 15:13:26;;;;;;;;;2.67;2.00;;;;;;;;5062590;28;45481;-79
2022/09/20 15:15:52;;;;;;;;;2.00;2.00;;;;;;;;5072102;28;46904;-79
2022/09/20 15:18:18;;;;;;;;;4.00;2.00;;;;;;;;5046240;28;45277;-76
2022/09/20 15:20:43;;;;;;;;;3.33;3.33;;;;;;;;5047419;28;45383;-77
2022/09/20 15:23:08;;;;;;;;;2.00;2.00;;;;;;;;5054312;28;45310;-78
2022/09/20 15:25:34;;;;;;;;;1.00;1.00;;;;;;;;5057863;28;45409;-79
2022/09/20 15:27:59;;;;;;;;;1.67;1.67;;;;;;;;5059576;28;45351;-79
2022/09/20 15:30:25;;;;;;;;;1.33;1.33;;;;;;;;5057799;28;45354;-78